WTB2JB EKVG-BIRK
Flight info
| Callsign | WTB2JB |
|---|---|
| Flight time | 2h 23m |
| Altitude | 18000 |
| Route | MY DCT NASBU NASBU1V |
| Aircraft | B58T/L-SDFGRY/C |
Departure
| Time | 2026-04-29 17:55 |
|---|---|
| Airport | Vágar Airport (EKVG) |
Arrival
| Time | 2026-04-29 20:18 |
|---|---|
| Airport | Reykjavík Domestic Airport (BIRK) |
| Time | Latitude | Longitude | Altitude | Speed | Heading |
|---|---|---|---|---|---|
| 2026-04-29 17:41 | 62.06754 | -7.28214 | 273 ft | 0 kts | 72° |
| 2026-04-29 17:42 | 62.06754 | -7.28215 | 273 ft | 0 kts | 72° |
| 2026-04-29 17:44 | 62.06754 | -7.28216 | 273 ft | 0 kts | 72° |
| 2026-04-29 17:47 | 62.06754 | -7.28217 | 273 ft | 0 kts | 72° |
| 2026-04-29 17:49 | 62.06754 | -7.28218 | 273 ft | 0 kts | 72° |
| 2026-04-29 17:52 | 62.06754 | -7.28219 | 273 ft | 0 kts | 72° |
| 2026-04-29 17:54 | 62.06730 | -7.28139 | 273 ft | 12 kts | 131° |
| 2026-04-29 17:54 | 62.06653 | -7.28088 | 273 ft | 12 kts | 181° |
| 2026-04-29 17:54 | 62.06551 | -7.28114 | 273 ft | 15 kts | 197° |
| 2026-04-29 17:55 | 62.06475 | -7.28176 | 275 ft | 9 kts | 168° |
| 2026-04-29 17:55 | 62.06334 | -7.27640 | 281 ft | 86 kts | 118° |
| 2026-04-29 17:55 | 62.05989 | -7.26174 | 485 ft | 122 kts | 120° |
| 2026-04-29 17:55 | 62.05660 | -7.24513 | 1087 ft | 124 kts | 121° |
| 2026-04-29 17:56 | 62.05367 | -7.22913 | 2024 ft | 104 kts | 115° |
| 2026-04-29 17:56 | 62.05096 | -7.21172 | 2261 ft | 146 kts | 134° |
| 2026-04-29 17:56 | 62.04393 | -7.19387 | 2306 ft | 168 kts | 137° |
| 2026-04-29 17:56 | 62.03733 | -7.17205 | 2377 ft | 181 kts | 126° |
| 2026-04-29 17:57 | 62.03129 | -7.14807 | 2438 ft | 186 kts | 125° |
| 2026-04-29 17:57 | 62.02517 | -7.12342 | 2437 ft | 190 kts | 125° |
| 2026-04-29 17:57 | 62.01897 | -7.09846 | 2442 ft | 192 kts | 125° |
| 2026-04-29 17:57 | 62.01297 | -7.07418 | 2741 ft | 179 kts | 125° |
| 2026-04-29 17:58 | 62.00641 | -7.05325 | 3069 ft | 160 kts | 149° |
| 2026-04-29 17:58 | 61.99707 | -7.04572 | 3403 ft | 139 kts | 186° |
| 2026-04-29 17:58 | 61.98819 | -7.05039 | 3741 ft | 129 kts | 214° |
| 2026-04-29 17:58 | 61.98209 | -7.06360 | 4068 ft | 125 kts | 239° |
| 2026-04-29 17:59 | 61.98016 | -7.08165 | 4397 ft | 131 kts | 266° |
| 2026-04-29 17:59 | 61.98328 | -7.10087 | 4734 ft | 145 kts | 289° |
| 2026-04-29 17:59 | 61.98829 | -7.11989 | 5077 ft | 149 kts | 288° |
| 2026-04-29 17:59 | 61.99322 | -7.13945 | 5409 ft | 152 kts | 288° |
| 2026-04-29 18:00 | 61.99828 | -7.15939 | 5733 ft | 154 kts | 289° |
| 2026-04-29 18:00 | 62.00344 | -7.17951 | 6062 ft | 156 kts | 289° |
| 2026-04-29 18:00 | 62.00863 | -7.19990 | 6397 ft | 157 kts | 289° |
| 2026-04-29 18:00 | 62.01388 | -7.22042 | 6733 ft | 158 kts | 289° |
| 2026-04-29 18:01 | 62.01915 | -7.24108 | 7051 ft | 159 kts | 288° |
| 2026-04-29 18:01 | 62.02447 | -7.26185 | 7363 ft | 159 kts | 288° |
| 2026-04-29 18:01 | 62.02974 | -7.28252 | 7675 ft | 159 kts | 288° |
| 2026-04-29 18:01 | 62.03499 | -7.30313 | 8023 ft | 158 kts | 287° |
| 2026-04-29 18:02 | 62.04013 | -7.32337 | 8346 ft | 157 kts | 286° |
| 2026-04-29 18:02 | 62.04532 | -7.34384 | 8675 ft | 157 kts | 286° |
| 2026-04-29 18:02 | 62.05050 | -7.36426 | 9008 ft | 157 kts | 286° |
| 2026-04-29 18:02 | 62.05569 | -7.38475 | 9352 ft | 157 kts | 286° |
| 2026-04-29 18:03 | 62.06090 | -7.40529 | 9690 ft | 158 kts | 285° |
| 2026-04-29 18:03 | 62.06611 | -7.42592 | 10032 ft | 158 kts | 285° |
| 2026-04-29 18:03 | 62.07133 | -7.44658 | 10355 ft | 158 kts | 285° |
| 2026-04-29 18:03 | 62.07656 | -7.46727 | 10666 ft | 159 kts | 285° |
| 2026-04-29 18:04 | 62.08179 | -7.48803 | 10980 ft | 159 kts | 285° |
| 2026-04-29 18:04 | 62.08703 | -7.50880 | 11287 ft | 159 kts | 284° |
| 2026-04-29 18:04 | 62.09228 | -7.52964 | 11608 ft | 159 kts | 284° |
| 2026-04-29 18:04 | 62.09753 | -7.55059 | 11942 ft | 161 kts | 284° |
| 2026-04-29 18:05 | 62.10282 | -7.57156 | 12259 ft | 160 kts | 284° |
| 2026-04-29 18:05 | 62.10809 | -7.59248 | 12568 ft | 159 kts | 283° |
| 2026-04-29 18:05 | 62.11275 | -7.61374 | 12919 ft | 157 kts | 279° |
| 2026-04-29 18:05 | 62.11686 | -7.63519 | 13259 ft | 156 kts | 278° |
| 2026-04-29 18:06 | 62.12097 | -7.65672 | 13600 ft | 157 kts | 278° |
| 2026-04-29 18:06 | 62.12516 | -7.67831 | 13948 ft | 158 kts | 278° |
| 2026-04-29 18:06 | 62.12941 | -7.69990 | 14272 ft | 158 kts | 278° |
| 2026-04-29 18:06 | 62.13373 | -7.72167 | 14584 ft | 159 kts | 278° |
| 2026-04-29 18:07 | 62.13807 | -7.74348 | 14892 ft | 160 kts | 278° |
| 2026-04-29 18:07 | 62.14243 | -7.76537 | 15207 ft | 160 kts | 278° |
| 2026-04-29 18:07 | 62.14681 | -7.78737 | 15526 ft | 161 kts | 278° |
| 2026-04-29 18:07 | 62.15121 | -7.80949 | 15846 ft | 162 kts | 278° |
| 2026-04-29 18:08 | 62.15562 | -7.83170 | 16169 ft | 163 kts | 278° |
| 2026-04-29 18:08 | 62.16006 | -7.85401 | 16481 ft | 163 kts | 278° |
| 2026-04-29 18:08 | 62.16449 | -7.87638 | 16812 ft | 164 kts | 278° |
| 2026-04-29 18:08 | 62.16895 | -7.89885 | 17147 ft | 164 kts | 278° |
| 2026-04-29 18:09 | 62.17341 | -7.92141 | 17485 ft | 165 kts | 278° |
| 2026-04-29 18:09 | 62.17788 | -7.94401 | 17827 ft | 165 kts | 278° |
| 2026-04-29 18:09 | 62.18237 | -7.96675 | 18166 ft | 166 kts | 278° |
| 2026-04-29 18:09 | 62.18695 | -7.99041 | 18256 ft | 179 kts | 278° |
| 2026-04-29 18:10 | 62.19187 | -8.01600 | 18275 ft | 192 kts | 279° |
| 2026-04-29 18:10 | 62.19717 | -8.04306 | 18282 ft | 201 kts | 280° |
| 2026-04-29 18:10 | 62.20272 | -8.07112 | 18283 ft | 208 kts | 281° |
| 2026-04-29 18:10 | 62.20843 | -8.09988 | 18282 ft | 212 kts | 281° |
| 2026-04-29 18:11 | 62.21423 | -8.12918 | 18284 ft | 215 kts | 281° |
| 2026-04-29 18:11 | 62.22007 | -8.15881 | 18271 ft | 217 kts | 281° |
| 2026-04-29 18:11 | 62.22595 | -8.18869 | 18271 ft | 218 kts | 281° |
| 2026-04-29 18:11 | 62.23184 | -8.21875 | 18272 ft | 219 kts | 281° |
| 2026-04-29 18:12 | 62.23767 | -8.24859 | 18272 ft | 220 kts | 281° |
| 2026-04-29 18:12 | 62.24357 | -8.27886 | 18273 ft | 220 kts | 281° |
| 2026-04-29 18:12 | 62.24947 | -8.30922 | 18272 ft | 221 kts | 281° |
| 2026-04-29 18:12 | 62.25537 | -8.33960 | 18272 ft | 221 kts | 281° |
| 2026-04-29 18:13 | 62.26128 | -8.37004 | 18273 ft | 221 kts | 281° |
| 2026-04-29 18:13 | 62.26717 | -8.40049 | 18273 ft | 221 kts | 281° |
| 2026-04-29 18:13 | 62.27307 | -8.43099 | 18289 ft | 221 kts | 281° |
| 2026-04-29 18:13 | 62.27893 | -8.46137 | 18275 ft | 220 kts | 281° |
| 2026-04-29 18:14 | 62.28478 | -8.49172 | 18261 ft | 219 kts | 281° |
| 2026-04-29 18:14 | 62.29061 | -8.52198 | 18265 ft | 219 kts | 280° |
| 2026-04-29 18:14 | 62.29640 | -8.55217 | 18258 ft | 218 kts | 280° |
| 2026-04-29 18:14 | 62.30217 | -8.58231 | 18260 ft | 218 kts | 280° |
| 2026-04-29 18:15 | 62.30793 | -8.61245 | 18262 ft | 218 kts | 280° |
| 2026-04-29 18:15 | 62.31368 | -8.64257 | 18252 ft | 218 kts | 280° |
| 2026-04-29 18:15 | 62.31934 | -8.67228 | 18257 ft | 217 kts | 280° |
| 2026-04-29 18:15 | 62.32507 | -8.70235 | 18255 ft | 217 kts | 280° |
| 2026-04-29 18:16 | 62.33086 | -8.73284 | 18260 ft | 217 kts | 280° |
| 2026-04-29 18:16 | 62.33650 | -8.76256 | 18259 ft | 217 kts | 280° |
| 2026-04-29 18:16 | 62.34220 | -8.79265 | 18268 ft | 218 kts | 279° |
| 2026-04-29 18:16 | 62.34790 | -8.82284 | 18265 ft | 218 kts | 279° |
| 2026-04-29 18:17 | 62.35362 | -8.85310 | 18255 ft | 218 kts | 279° |
| 2026-04-29 18:17 | 62.35933 | -8.88336 | 18251 ft | 218 kts | 279° |
| 2026-04-29 18:17 | 62.36503 | -8.91363 | 18243 ft | 218 kts | 279° |
| 2026-04-29 18:17 | 62.37073 | -8.94390 | 18239 ft | 218 kts | 279° |
| 2026-04-29 18:18 | 62.37642 | -8.97416 | 18246 ft | 218 kts | 279° |
| 2026-04-29 18:18 | 62.38209 | -9.00441 | 18242 ft | 218 kts | 279° |
| 2026-04-29 18:18 | 62.38777 | -9.03471 | 18243 ft | 218 kts | 279° |
| 2026-04-29 18:18 | 62.39342 | -9.06494 | 18246 ft | 218 kts | 279° |
| 2026-04-29 18:19 | 62.39902 | -9.09496 | 18243 ft | 218 kts | 279° |
| 2026-04-29 18:19 | 62.40467 | -9.12527 | 18240 ft | 218 kts | 279° |
| 2026-04-29 18:19 | 62.41031 | -9.15557 | 18235 ft | 218 kts | 279° |
| 2026-04-29 18:19 | 62.41594 | -9.18587 | 18240 ft | 218 kts | 279° |
| 2026-04-29 18:20 | 62.42156 | -9.21617 | 18233 ft | 217 kts | 279° |
| 2026-04-29 18:20 | 62.42717 | -9.24645 | 18233 ft | 217 kts | 279° |
| 2026-04-29 18:20 | 62.43278 | -9.27681 | 18233 ft | 217 kts | 279° |
| 2026-04-29 18:20 | 62.43838 | -9.30712 | 18233 ft | 217 kts | 279° |
| 2026-04-29 18:21 | 62.44397 | -9.33747 | 18232 ft | 217 kts | 279° |
| 2026-04-29 18:21 | 62.44956 | -9.36782 | 18237 ft | 217 kts | 279° |
| 2026-04-29 18:21 | 62.45514 | -9.39818 | 18229 ft | 217 kts | 279° |
| 2026-04-29 18:21 | 62.46071 | -9.42852 | 18220 ft | 217 kts | 279° |
| 2026-04-29 18:22 | 62.46627 | -9.45885 | 18224 ft | 217 kts | 279° |
| 2026-04-29 18:22 | 62.47183 | -9.48924 | 18224 ft | 217 kts | 279° |
| 2026-04-29 18:22 | 62.47737 | -9.51961 | 18219 ft | 217 kts | 279° |
| 2026-04-29 18:22 | 62.48292 | -9.55005 | 18222 ft | 217 kts | 279° |
| 2026-04-29 18:23 | 62.48846 | -9.58047 | 18242 ft | 218 kts | 278° |
| 2026-04-29 18:23 | 62.49400 | -9.61098 | 18229 ft | 218 kts | 278° |
| 2026-04-29 18:23 | 62.49954 | -9.64152 | 18252 ft | 218 kts | 277° |
| 2026-04-29 18:23 | 62.50509 | -9.67206 | 18233 ft | 217 kts | 277° |
| 2026-04-29 18:24 | 62.51060 | -9.70243 | 18227 ft | 216 kts | 277° |
| 2026-04-29 18:24 | 62.51608 | -9.73268 | 18223 ft | 215 kts | 277° |
| 2026-04-29 18:24 | 62.52153 | -9.76284 | 18215 ft | 215 kts | 277° |
| 2026-04-29 18:24 | 62.52695 | -9.79294 | 18214 ft | 214 kts | 277° |
| 2026-04-29 18:25 | 62.53235 | -9.82300 | 18213 ft | 214 kts | 277° |
| 2026-04-29 18:25 | 62.53774 | -9.85306 | 18215 ft | 214 kts | 277° |
| 2026-04-29 18:25 | 62.54311 | -9.88311 | 18201 ft | 214 kts | 277° |
| 2026-04-29 18:25 | 62.54848 | -9.91310 | 18201 ft | 214 kts | 277° |
| 2026-04-29 18:26 | 62.55384 | -9.94316 | 18207 ft | 214 kts | 277° |
| 2026-04-29 18:26 | 62.55919 | -9.97316 | 18206 ft | 213 kts | 277° |
| 2026-04-29 18:26 | 62.56454 | -10.00320 | 18208 ft | 214 kts | 277° |
| 2026-04-29 18:26 | 62.56981 | -10.03286 | 18207 ft | 214 kts | 277° |
| 2026-04-29 18:27 | 62.57515 | -10.06292 | 18199 ft | 214 kts | 277° |
| 2026-04-29 18:27 | 62.58048 | -10.09302 | 18197 ft | 214 kts | 277° |
| 2026-04-29 18:27 | 62.58581 | -10.12312 | 18198 ft | 214 kts | 277° |
| 2026-04-29 18:27 | 62.59113 | -10.15320 | 18201 ft | 214 kts | 277° |
| 2026-04-29 18:28 | 62.59645 | -10.18335 | 18198 ft | 214 kts | 277° |
| 2026-04-29 18:28 | 62.60175 | -10.21343 | 18196 ft | 213 kts | 277° |
| 2026-04-29 18:28 | 62.60705 | -10.24353 | 18197 ft | 213 kts | 277° |
| 2026-04-29 18:28 | 62.61234 | -10.27364 | 18198 ft | 213 kts | 277° |
| 2026-04-29 18:29 | 62.61761 | -10.30373 | 18198 ft | 213 kts | 277° |
| 2026-04-29 18:29 | 62.62111 | -10.32367 | 18198 ft | 213 kts | 277° |
| 2026-04-29 18:29 | 62.62816 | -10.36401 | 18187 ft | 213 kts | 277° |
| 2026-04-29 18:29 | 62.63342 | -10.39416 | 18201 ft | 213 kts | 276° |
| 2026-04-29 18:30 | 62.63868 | -10.42435 | 18189 ft | 214 kts | 276° |
| 2026-04-29 18:30 | 62.64393 | -10.45457 | 18186 ft | 214 kts | 276° |
| 2026-04-29 18:30 | 62.64918 | -10.48479 | 18181 ft | 214 kts | 276° |
| 2026-04-29 18:30 | 62.65442 | -10.51502 | 18183 ft | 213 kts | 276° |
| 2026-04-29 18:31 | 62.65966 | -10.54523 | 18183 ft | 213 kts | 276° |
| 2026-04-29 18:31 | 62.66481 | -10.57501 | 18183 ft | 213 kts | 276° |
| 2026-04-29 18:31 | 62.67002 | -10.60523 | 18181 ft | 213 kts | 276° |
| 2026-04-29 18:31 | 62.67523 | -10.63547 | 18180 ft | 213 kts | 276° |
| 2026-04-29 18:32 | 62.68043 | -10.66564 | 18179 ft | 213 kts | 276° |
| 2026-04-29 18:32 | 62.69080 | -10.72612 | 18172 ft | 213 kts | 276° |
| 2026-04-29 18:32 | 62.69597 | -10.75633 | 18171 ft | 213 kts | 276° |
| 2026-04-29 18:33 | 62.70115 | -10.78658 | 18174 ft | 213 kts | 276° |
| 2026-04-29 18:33 | 62.70630 | -10.81681 | 18174 ft | 213 kts | 276° |
| 2026-04-29 18:33 | 62.71145 | -10.84703 | 18189 ft | 213 kts | 276° |
| 2026-04-29 18:33 | 62.71660 | -10.87729 | 18186 ft | 213 kts | 275° |
| 2026-04-29 18:34 | 62.72175 | -10.90755 | 18175 ft | 212 kts | 275° |
| 2026-04-29 18:34 | 62.72340 | -10.91730 | 18173 ft | 212 kts | 275° |
| 2026-04-29 18:34 | 62.73197 | -10.96778 | 18166 ft | 211 kts | 275° |
| 2026-04-29 18:34 | 62.73703 | -10.99776 | 18165 ft | 211 kts | 275° |
| 2026-04-29 18:35 | 62.74209 | -11.02773 | 18162 ft | 210 kts | 275° |
| 2026-04-29 18:35 | 62.74713 | -11.05766 | 18157 ft | 210 kts | 275° |
| 2026-04-29 18:35 | 62.75216 | -11.08755 | 18157 ft | 210 kts | 275° |
| 2026-04-29 18:35 | 62.75717 | -11.11740 | 18157 ft | 209 kts | 275° |
| 2026-04-29 18:36 | 62.76216 | -11.14705 | 18157 ft | 208 kts | 275° |
| 2026-04-29 18:36 | 62.76711 | -11.17668 | 18156 ft | 208 kts | 275° |
| 2026-04-29 18:36 | 62.77205 | -11.20625 | 18156 ft | 207 kts | 275° |
| 2026-04-29 18:36 | 62.77691 | -11.23551 | 18172 ft | 208 kts | 274° |
| 2026-04-29 18:37 | 62.78185 | -11.26521 | 18163 ft | 208 kts | 274° |
| 2026-04-29 18:37 | 62.78679 | -11.29494 | 18158 ft | 208 kts | 274° |
| 2026-04-29 18:37 | 62.79172 | -11.32463 | 18155 ft | 208 kts | 274° |
| 2026-04-29 18:37 | 62.79665 | -11.35432 | 18146 ft | 208 kts | 274° |
| 2026-04-29 18:38 | 62.80157 | -11.38401 | 18138 ft | 207 kts | 274° |
| 2026-04-29 18:38 | 62.80647 | -11.41366 | 18138 ft | 207 kts | 274° |
| 2026-04-29 18:38 | 62.81135 | -11.44328 | 18138 ft | 207 kts | 274° |
| 2026-04-29 18:38 | 62.81624 | -11.47293 | 18138 ft | 207 kts | 274° |
| 2026-04-29 18:39 | 62.82111 | -11.50258 | 18138 ft | 207 kts | 274° |
| 2026-04-29 18:39 | 62.82434 | -11.52222 | 18139 ft | 207 kts | 274° |
| 2026-04-29 18:39 | 62.82920 | -11.55191 | 18138 ft | 207 kts | 274° |
| 2026-04-29 18:39 | 62.83406 | -11.58158 | 18137 ft | 207 kts | 274° |
| 2026-04-29 18:40 | 62.83891 | -11.61127 | 18137 ft | 207 kts | 274° |
| 2026-04-29 18:40 | 62.84377 | -11.64098 | 18137 ft | 207 kts | 274° |
| 2026-04-29 18:40 | 62.84860 | -11.67066 | 18138 ft | 207 kts | 274° |
| 2026-04-29 18:40 | 62.85344 | -11.70037 | 18138 ft | 207 kts | 274° |
| 2026-04-29 18:41 | 62.86790 | -11.78956 | 18133 ft | 207 kts | 274° |
| 2026-04-29 18:41 | 62.87272 | -11.81937 | 18132 ft | 207 kts | 274° |
| 2026-04-29 18:42 | 62.87753 | -11.84915 | 18118 ft | 207 kts | 274° |
| 2026-04-29 18:42 | 62.88233 | -11.87893 | 18119 ft | 207 kts | 274° |
| 2026-04-29 18:42 | 62.88711 | -11.90870 | 18119 ft | 207 kts | 274° |
| 2026-04-29 18:42 | 62.89190 | -11.93849 | 18118 ft | 207 kts | 274° |
| 2026-04-29 18:43 | 62.89668 | -11.96829 | 18121 ft | 207 kts | 274° |
| 2026-04-29 18:43 | 62.90145 | -11.99812 | 18121 ft | 207 kts | 274° |
| 2026-04-29 18:43 | 62.90621 | -12.02792 | 18121 ft | 207 kts | 274° |
| 2026-04-29 18:43 | 62.91097 | -12.05775 | 18134 ft | 208 kts | 273° |
| 2026-04-29 18:44 | 62.91573 | -12.08770 | 18124 ft | 208 kts | 273° |
| 2026-04-29 18:44 | 62.92049 | -12.11763 | 18152 ft | 208 kts | 272° |
| 2026-04-29 18:44 | 62.92524 | -12.14749 | 18131 ft | 207 kts | 272° |
| 2026-04-29 18:44 | 62.92992 | -12.17684 | 18121 ft | 206 kts | 272° |
| 2026-04-29 18:45 | 62.93463 | -12.20644 | 18117 ft | 205 kts | 272° |
| 2026-04-29 18:45 | 62.93928 | -12.23577 | 18116 ft | 202 kts | 272° |
| 2026-04-29 18:45 | 62.94389 | -12.26485 | 18117 ft | 201 kts | 272° |
| 2026-04-29 18:45 | 62.94845 | -12.29379 | 18116 ft | 200 kts | 272° |
| 2026-04-29 18:46 | 62.95296 | -12.32256 | 18112 ft | 199 kts | 271° |
| 2026-04-29 18:46 | 62.95745 | -12.35127 | 18104 ft | 198 kts | 271° |
| 2026-04-29 18:46 | 62.96192 | -12.37991 | 18102 ft | 198 kts | 271° |
| 2026-04-29 18:46 | 62.96638 | -12.40856 | 18102 ft | 198 kts | 271° |
| 2026-04-29 18:47 | 62.97083 | -12.43710 | 18100 ft | 198 kts | 271° |
| 2026-04-29 18:47 | 62.97528 | -12.46571 | 18104 ft | 198 kts | 271° |
| 2026-04-29 18:47 | 62.97972 | -12.49432 | 18103 ft | 198 kts | 271° |
| 2026-04-29 18:47 | 62.98417 | -12.52302 | 18103 ft | 198 kts | 271° |
| 2026-04-29 18:48 | 62.98862 | -12.55171 | 18103 ft | 198 kts | 271° |
| 2026-04-29 18:48 | 62.99308 | -12.58048 | 18102 ft | 198 kts | 271° |
| 2026-04-29 18:48 | 62.99752 | -12.60920 | 18100 ft | 198 kts | 271° |
| 2026-04-29 18:48 | 63.00196 | -12.63790 | 18099 ft | 198 kts | 271° |
| 2026-04-29 18:49 | 63.00639 | -12.66656 | 18097 ft | 198 kts | 271° |
| 2026-04-29 18:49 | 63.01080 | -12.69517 | 18098 ft | 197 kts | 271° |
| 2026-04-29 18:49 | 63.01520 | -12.72378 | 18093 ft | 197 kts | 271° |
| 2026-04-29 18:49 | 63.01958 | -12.75237 | 18094 ft | 197 kts | 271° |
| 2026-04-29 18:50 | 63.02397 | -12.78102 | 18094 ft | 197 kts | 271° |
| 2026-04-29 18:50 | 63.02834 | -12.80964 | 18094 ft | 197 kts | 271° |
| 2026-04-29 18:50 | 63.03270 | -12.83822 | 18095 ft | 197 kts | 271° |
| 2026-04-29 18:50 | 63.03706 | -12.86683 | 18086 ft | 197 kts | 271° |
| 2026-04-29 18:51 | 63.04135 | -12.89512 | 18108 ft | 197 kts | 270° |
| 2026-04-29 18:51 | 63.04570 | -12.92380 | 18092 ft | 197 kts | 270° |
| 2026-04-29 18:51 | 63.05005 | -12.95243 | 18087 ft | 197 kts | 270° |
| 2026-04-29 18:51 | 63.05439 | -12.98093 | 18085 ft | 196 kts | 270° |
| 2026-04-29 18:52 | 63.05871 | -13.00948 | 18086 ft | 196 kts | 270° |
| 2026-04-29 18:52 | 63.06301 | -13.03794 | 18085 ft | 196 kts | 270° |
| 2026-04-29 18:52 | 63.06730 | -13.06640 | 18081 ft | 195 kts | 270° |
| 2026-04-29 18:52 | 63.07158 | -13.09482 | 18081 ft | 195 kts | 270° |
| 2026-04-29 18:53 | 63.07585 | -13.12325 | 18080 ft | 195 kts | 270° |
| 2026-04-29 18:53 | 63.08011 | -13.15168 | 18080 ft | 195 kts | 270° |
| 2026-04-29 18:53 | 63.08436 | -13.18010 | 18080 ft | 195 kts | 270° |
| 2026-04-29 18:53 | 63.08861 | -13.20853 | 18083 ft | 195 kts | 270° |
| 2026-04-29 18:54 | 63.09286 | -13.23699 | 18079 ft | 195 kts | 270° |
| 2026-04-29 18:54 | 63.09710 | -13.26548 | 18080 ft | 195 kts | 270° |
| 2026-04-29 18:54 | 63.10133 | -13.29395 | 18080 ft | 195 kts | 270° |
| 2026-04-29 18:54 | 63.10557 | -13.32244 | 18081 ft | 195 kts | 270° |
| 2026-04-29 18:55 | 63.10980 | -13.35098 | 18083 ft | 195 kts | 270° |
| 2026-04-29 18:55 | 63.11403 | -13.37951 | 18109 ft | 195 kts | 270° |
| 2026-04-29 18:55 | 63.11825 | -13.40799 | 18087 ft | 195 kts | 270° |
| 2026-04-29 18:55 | 63.12245 | -13.43639 | 18077 ft | 194 kts | 270° |
| 2026-04-29 18:56 | 63.12663 | -13.46468 | 18077 ft | 193 kts | 270° |
| 2026-04-29 18:56 | 63.13078 | -13.49294 | 18076 ft | 193 kts | 269° |
| 2026-04-29 18:56 | 63.13493 | -13.52117 | 18070 ft | 193 kts | 269° |
| 2026-04-29 18:56 | 63.13906 | -13.54935 | 18074 ft | 192 kts | 269° |
| 2026-04-29 18:57 | 63.14317 | -13.57744 | 18064 ft | 192 kts | 269° |
| 2026-04-29 18:57 | 63.14722 | -13.60516 | 18074 ft | 192 kts | 269° |
| 2026-04-29 18:57 | 63.15131 | -13.63321 | 18075 ft | 191 kts | 269° |
| 2026-04-29 18:57 | 63.15538 | -13.66122 | 18070 ft | 191 kts | 269° |
| 2026-04-29 18:58 | 63.15945 | -13.68923 | 18071 ft | 191 kts | 269° |
| 2026-04-29 18:58 | 63.16351 | -13.71724 | 18075 ft | 191 kts | 269° |
| 2026-04-29 18:58 | 63.16758 | -13.74546 | 18097 ft | 194 kts | 270° |
| 2026-04-29 18:58 | 63.17166 | -13.77405 | 18082 ft | 196 kts | 270° |
| 2026-04-29 18:59 | 63.17581 | -13.80290 | 18073 ft | 197 kts | 270° |
| 2026-04-29 18:59 | 63.17998 | -13.83184 | 18073 ft | 198 kts | 270° |
| 2026-04-29 18:59 | 63.18418 | -13.86088 | 18071 ft | 198 kts | 270° |
| 2026-04-29 18:59 | 63.18837 | -13.88991 | 18065 ft | 198 kts | 270° |
| 2026-04-29 19:00 | 63.19256 | -13.91898 | 18065 ft | 198 kts | 270° |
| 2026-04-29 19:00 | 63.19673 | -13.94805 | 18066 ft | 198 kts | 270° |
| 2026-04-29 19:00 | 63.20090 | -13.97716 | 18066 ft | 198 kts | 270° |
| 2026-04-29 19:00 | 63.20506 | -14.00626 | 18066 ft | 198 kts | 270° |
| 2026-04-29 19:01 | 63.20921 | -14.03536 | 18066 ft | 198 kts | 270° |
| 2026-04-29 19:01 | 63.21336 | -14.06449 | 18062 ft | 198 kts | 270° |
| 2026-04-29 19:01 | 63.21749 | -14.09360 | 18061 ft | 198 kts | 270° |
| 2026-04-29 19:01 | 63.22157 | -14.12235 | 18061 ft | 198 kts | 270° |
| 2026-04-29 19:02 | 63.22569 | -14.15148 | 18062 ft | 198 kts | 270° |
| 2026-04-29 19:02 | 63.22848 | -14.17119 | 18067 ft | 198 kts | 270° |
| 2026-04-29 19:02 | 63.23399 | -14.21035 | 18072 ft | 200 kts | 270° |
| 2026-04-29 19:02 | 63.23808 | -14.23946 | 18065 ft | 201 kts | 270° |
| 2026-04-29 19:03 | 63.24223 | -14.26895 | 18058 ft | 200 kts | 270° |
| 2026-04-29 19:03 | 63.24637 | -14.29838 | 18056 ft | 199 kts | 270° |
| 2026-04-29 19:03 | 63.25049 | -14.32764 | 18058 ft | 198 kts | 270° |
| 2026-04-29 19:03 | 63.25459 | -14.35685 | 18061 ft | 198 kts | 269° |
| 2026-04-29 19:04 | 63.25865 | -14.38599 | 18060 ft | 198 kts | 269° |
| 2026-04-29 19:04 | 63.26270 | -14.41513 | 18058 ft | 198 kts | 269° |
| 2026-04-29 19:04 | 63.26675 | -14.44430 | 18058 ft | 198 kts | 269° |
| 2026-04-29 19:04 | 63.27079 | -14.47345 | 18059 ft | 198 kts | 269° |
| 2026-04-29 19:05 | 63.27482 | -14.50261 | 18056 ft | 198 kts | 269° |
| 2026-04-29 19:05 | 63.27885 | -14.53176 | 18055 ft | 197 kts | 269° |
| 2026-04-29 19:05 | 63.28288 | -14.56093 | 18056 ft | 197 kts | 269° |
| 2026-04-29 19:05 | 63.28690 | -14.59010 | 18078 ft | 198 kts | 269° |
| 2026-04-29 19:06 | 63.29091 | -14.61952 | 18065 ft | 200 kts | 269° |
| 2026-04-29 19:06 | 63.29497 | -14.64918 | 18060 ft | 200 kts | 269° |
| 2026-04-29 19:06 | 63.30313 | -14.70878 | 18075 ft | 202 kts | 270° |
| 2026-04-29 19:07 | 63.30722 | -14.73868 | 18069 ft | 202 kts | 270° |
| 2026-04-29 19:07 | 63.30993 | -14.75848 | 18069 ft | 202 kts | 270° |
| 2026-04-29 19:07 | 63.31539 | -14.79846 | 18062 ft | 202 kts | 270° |
| 2026-04-29 19:07 | 63.31946 | -14.82834 | 18058 ft | 201 kts | 269° |
| 2026-04-29 19:08 | 63.32346 | -14.85772 | 18058 ft | 201 kts | 269° |
| 2026-04-29 19:08 | 63.32749 | -14.88744 | 18059 ft | 200 kts | 269° |
| 2026-04-29 19:08 | 63.33150 | -14.91712 | 18059 ft | 200 kts | 269° |
| 2026-04-29 19:08 | 63.33550 | -14.94683 | 18053 ft | 200 kts | 269° |
| 2026-04-29 19:09 | 63.33949 | -14.97651 | 18054 ft | 200 kts | 269° |
| 2026-04-29 19:09 | 63.34348 | -15.00617 | 18053 ft | 200 kts | 269° |
| 2026-04-29 19:09 | 63.34745 | -15.03583 | 18053 ft | 200 kts | 269° |
| 2026-04-29 19:09 | 63.35141 | -15.06544 | 18052 ft | 200 kts | 269° |
| 2026-04-29 19:10 | 63.35538 | -15.09515 | 18055 ft | 200 kts | 269° |
| 2026-04-29 19:10 | 63.35934 | -15.12486 | 18056 ft | 200 kts | 269° |
| 2026-04-29 19:10 | 63.36329 | -15.15462 | 18057 ft | 200 kts | 269° |
| 2026-04-29 19:10 | 63.36726 | -15.18442 | 18054 ft | 200 kts | 269° |
| 2026-04-29 19:11 | 63.37120 | -15.21413 | 18057 ft | 200 kts | 269° |
| 2026-04-29 19:11 | 63.37514 | -15.24386 | 18054 ft | 200 kts | 269° |
| 2026-04-29 19:11 | 63.37907 | -15.27359 | 18054 ft | 200 kts | 269° |
| 2026-04-29 19:11 | 63.38300 | -15.30329 | 18056 ft | 200 kts | 269° |
| 2026-04-29 19:12 | 63.38691 | -15.33300 | 18058 ft | 200 kts | 269° |
| 2026-04-29 19:12 | 63.39082 | -15.36276 | 18058 ft | 200 kts | 269° |
| 2026-04-29 19:12 | 63.39472 | -15.39253 | 18055 ft | 200 kts | 269° |
| 2026-04-29 19:12 | 63.39730 | -15.41222 | 18055 ft | 200 kts | 269° |
| 2026-04-29 19:13 | 63.40251 | -15.45201 | 18061 ft | 200 kts | 269° |
| 2026-04-29 19:13 | 63.40639 | -15.48179 | 18068 ft | 200 kts | 268° |
| 2026-04-29 19:13 | 63.41027 | -15.51153 | 18057 ft | 199 kts | 268° |
| 2026-04-29 19:13 | 63.41414 | -15.54122 | 18052 ft | 199 kts | 268° |
| 2026-04-29 19:14 | 63.41799 | -15.57079 | 18049 ft | 198 kts | 268° |
| 2026-04-29 19:14 | 63.42181 | -15.60031 | 18048 ft | 198 kts | 268° |
| 2026-04-29 19:14 | 63.42557 | -15.62938 | 18048 ft | 197 kts | 268° |
| 2026-04-29 19:14 | 63.42936 | -15.65884 | 18048 ft | 197 kts | 268° |
| 2026-04-29 19:15 | 63.43314 | -15.68826 | 18048 ft | 197 kts | 268° |
| 2026-04-29 19:15 | 63.43692 | -15.71765 | 18048 ft | 197 kts | 268° |
| 2026-04-29 19:15 | 63.44069 | -15.74705 | 18048 ft | 197 kts | 268° |
| 2026-04-29 19:15 | 63.44445 | -15.77645 | 18049 ft | 197 kts | 268° |
| 2026-04-29 19:16 | 63.44821 | -15.80589 | 18055 ft | 197 kts | 268° |
| 2026-04-29 19:16 | 63.45197 | -15.83537 | 18052 ft | 197 kts | 268° |
| 2026-04-29 19:16 | 63.45572 | -15.86485 | 18050 ft | 197 kts | 268° |
| 2026-04-29 19:16 | 63.45947 | -15.89433 | 18050 ft | 197 kts | 268° |
| 2026-04-29 19:17 | 63.46321 | -15.92381 | 18051 ft | 197 kts | 268° |
| 2026-04-29 19:17 | 63.46695 | -15.95330 | 18050 ft | 197 kts | 268° |
| 2026-04-29 19:17 | 63.47067 | -15.98276 | 18091 ft | 197 kts | 266° |
| 2026-04-29 19:17 | 63.47439 | -16.01212 | 18067 ft | 195 kts | 266° |
| 2026-04-29 19:18 | 63.47808 | -16.04119 | 18045 ft | 194 kts | 266° |
| 2026-04-29 19:18 | 63.48051 | -16.06032 | 18041 ft | 193 kts | 266° |
| 2026-04-29 19:18 | 63.48534 | -16.09874 | 18046 ft | 191 kts | 266° |
| 2026-04-29 19:18 | 63.48892 | -16.12732 | 18037 ft | 190 kts | 266° |
| 2026-04-29 19:19 | 63.49242 | -16.15546 | 18045 ft | 190 kts | 265° |
| 2026-04-29 19:19 | 63.49596 | -16.18393 | 18040 ft | 190 kts | 265° |
| 2026-04-29 19:19 | 63.49948 | -16.21234 | 18048 ft | 189 kts | 265° |
| 2026-04-29 19:19 | 63.50300 | -16.24074 | 18039 ft | 189 kts | 265° |
| 2026-04-29 19:20 | 63.50652 | -16.26917 | 18051 ft | 189 kts | 265° |
| 2026-04-29 19:20 | 63.51002 | -16.29753 | 18046 ft | 189 kts | 265° |
| 2026-04-29 19:20 | 63.51352 | -16.32590 | 18043 ft | 189 kts | 265° |
| 2026-04-29 19:20 | 63.51703 | -16.35433 | 18047 ft | 189 kts | 265° |
| 2026-04-29 19:21 | 63.52052 | -16.38276 | 18044 ft | 189 kts | 265° |
| 2026-04-29 19:21 | 63.52402 | -16.41117 | 18040 ft | 189 kts | 265° |
| 2026-04-29 19:21 | 63.52750 | -16.43957 | 18041 ft | 189 kts | 265° |
| 2026-04-29 19:21 | 63.53098 | -16.46803 | 18051 ft | 189 kts | 265° |
| 2026-04-29 19:22 | 63.53446 | -16.49643 | 18049 ft | 189 kts | 265° |
| 2026-04-29 19:22 | 63.53793 | -16.52489 | 18044 ft | 189 kts | 265° |
| 2026-04-29 19:22 | 63.54139 | -16.55332 | 18040 ft | 189 kts | 265° |
| 2026-04-29 19:22 | 63.54485 | -16.58177 | 18040 ft | 189 kts | 265° |
| 2026-04-29 19:23 | 63.54831 | -16.61023 | 18040 ft | 189 kts | 265° |
| 2026-04-29 19:23 | 63.55175 | -16.63868 | 18040 ft | 189 kts | 265° |
| 2026-04-29 19:23 | 63.55519 | -16.66714 | 18046 ft | 189 kts | 265° |
| 2026-04-29 19:23 | 63.55863 | -16.69559 | 18049 ft | 189 kts | 265° |
| 2026-04-29 19:24 | 63.56200 | -16.72365 | 18039 ft | 189 kts | 265° |
| 2026-04-29 19:24 | 63.56543 | -16.75216 | 18038 ft | 189 kts | 265° |
| 2026-04-29 19:24 | 63.56884 | -16.78060 | 18050 ft | 189 kts | 265° |
| 2026-04-29 19:24 | 63.57225 | -16.80910 | 18034 ft | 189 kts | 265° |
| 2026-04-29 19:25 | 63.57566 | -16.83759 | 18036 ft | 189 kts | 265° |
| 2026-04-29 19:25 | 63.57906 | -16.86612 | 18052 ft | 189 kts | 265° |
| 2026-04-29 19:25 | 63.58246 | -16.89465 | 18038 ft | 189 kts | 265° |
| 2026-04-29 19:25 | 63.58584 | -16.92313 | 18049 ft | 189 kts | 265° |
| 2026-04-29 19:26 | 63.58923 | -16.95170 | 18037 ft | 189 kts | 265° |
| 2026-04-29 19:26 | 63.59260 | -16.98021 | 18049 ft | 189 kts | 265° |
| 2026-04-29 19:26 | 63.59598 | -17.00877 | 18036 ft | 189 kts | 265° |
| 2026-04-29 19:26 | 63.59950 | -17.03736 | 18033 ft | 193 kts | 268° |
| 2026-04-29 19:27 | 63.60428 | -17.06598 | 18037 ft | 197 kts | 271° |
| 2026-04-29 19:27 | 63.60939 | -17.09467 | 18034 ft | 196 kts | 270° |
| 2026-04-29 19:27 | 63.61324 | -17.12324 | 18033 ft | 189 kts | 265° |
| 2026-04-29 19:27 | 63.61659 | -17.15181 | 18033 ft | 189 kts | 265° |
| 2026-04-29 19:28 | 63.61989 | -17.18035 | 18036 ft | 189 kts | 265° |
| 2026-04-29 19:28 | 63.62317 | -17.20891 | 18069 ft | 188 kts | 265° |
| 2026-04-29 19:28 | 63.62646 | -17.23730 | 18048 ft | 187 kts | 265° |
| 2026-04-29 19:28 | 63.62973 | -17.26551 | 18041 ft | 186 kts | 265° |
| 2026-04-29 19:29 | 63.63296 | -17.29356 | 18036 ft | 185 kts | 265° |
| 2026-04-29 19:29 | 63.63615 | -17.32147 | 18036 ft | 184 kts | 265° |
| 2026-04-29 19:29 | 63.63932 | -17.34931 | 18037 ft | 183 kts | 265° |
| 2026-04-29 19:29 | 63.64247 | -17.37706 | 18037 ft | 183 kts | 265° |
| 2026-04-29 19:30 | 63.64456 | -17.39545 | 18037 ft | 183 kts | 265° |
| 2026-04-29 19:30 | 63.64769 | -17.42314 | 18037 ft | 183 kts | 265° |
| 2026-04-29 19:30 | 63.65184 | -17.45980 | 18037 ft | 182 kts | 265° |
| 2026-04-29 19:30 | 63.65495 | -17.48742 | 18037 ft | 182 kts | 265° |
| 2026-04-29 19:31 | 63.65808 | -17.51512 | 18036 ft | 182 kts | 265° |
| 2026-04-29 19:31 | 63.66119 | -17.54279 | 18035 ft | 182 kts | 265° |
| 2026-04-29 19:31 | 63.66430 | -17.57045 | 18026 ft | 182 kts | 265° |
| 2026-04-29 19:31 | 63.66640 | -17.58914 | 18026 ft | 182 kts | 265° |
| 2026-04-29 19:32 | 63.66950 | -17.61681 | 18023 ft | 182 kts | 265° |
| 2026-04-29 19:32 | 63.67255 | -17.64409 | 18025 ft | 182 kts | 265° |
| 2026-04-29 19:32 | 63.67564 | -17.67174 | 18026 ft | 182 kts | 265° |
| 2026-04-29 19:32 | 63.67872 | -17.69939 | 18026 ft | 182 kts | 265° |
| 2026-04-29 19:33 | 63.68184 | -17.72745 | 18031 ft | 182 kts | 265° |
| 2026-04-29 19:33 | 63.68492 | -17.75517 | 18030 ft | 182 kts | 265° |
| 2026-04-29 19:33 | 63.68795 | -17.78251 | 18030 ft | 182 kts | 265° |
| 2026-04-29 19:33 | 63.69106 | -17.81061 | 18029 ft | 182 kts | 265° |
| 2026-04-29 19:34 | 63.69408 | -17.83797 | 18026 ft | 182 kts | 265° |
| 2026-04-29 19:34 | 63.69714 | -17.86568 | 18027 ft | 182 kts | 265° |
| 2026-04-29 19:34 | 63.70019 | -17.89343 | 18026 ft | 182 kts | 265° |
| 2026-04-29 19:34 | 63.70324 | -17.92121 | 18020 ft | 182 kts | 265° |
| 2026-04-29 19:35 | 63.70628 | -17.94896 | 18017 ft | 182 kts | 265° |
| 2026-04-29 19:35 | 63.70931 | -17.97669 | 18019 ft | 182 kts | 265° |
| 2026-04-29 19:35 | 63.71234 | -18.00442 | 18020 ft | 182 kts | 265° |
| 2026-04-29 19:35 | 63.71536 | -18.03218 | 18021 ft | 182 kts | 265° |
| 2026-04-29 19:36 | 63.71838 | -18.05995 | 18024 ft | 182 kts | 264° |
| 2026-04-29 19:36 | 63.72139 | -18.08775 | 18022 ft | 182 kts | 264° |
| 2026-04-29 19:36 | 63.72441 | -18.11558 | 18032 ft | 182 kts | 265° |
| 2026-04-29 19:36 | 63.72742 | -18.14340 | 18024 ft | 182 kts | 265° |
| 2026-04-29 19:37 | 63.73042 | -18.17115 | 18022 ft | 182 kts | 265° |
| 2026-04-29 19:37 | 63.73240 | -18.18950 | 18021 ft | 182 kts | 265° |
| 2026-04-29 19:37 | 63.73639 | -18.22655 | 18021 ft | 181 kts | 265° |
| 2026-04-29 19:37 | 63.73935 | -18.25420 | 18020 ft | 181 kts | 265° |
| 2026-04-29 19:38 | 63.74230 | -18.28189 | 18016 ft | 181 kts | 265° |
| 2026-04-29 19:38 | 63.74525 | -18.30951 | 18017 ft | 181 kts | 265° |
| 2026-04-29 19:38 | 63.74820 | -18.33726 | 18032 ft | 182 kts | 265° |
| 2026-04-29 19:38 | 63.75112 | -18.36499 | 18044 ft | 185 kts | 265° |
| 2026-04-29 19:39 | 63.75411 | -18.39341 | 18022 ft | 187 kts | 265° |
| 2026-04-29 19:39 | 63.75715 | -18.42210 | 18023 ft | 188 kts | 265° |
| 2026-04-29 19:39 | 63.76018 | -18.45089 | 18007 ft | 188 kts | 265° |
| 2026-04-29 19:39 | 63.76321 | -18.47940 | 17996 ft | 186 kts | 265° |
| 2026-04-29 19:40 | 63.76624 | -18.50769 | 17993 ft | 184 kts | 265° |
| 2026-04-29 19:40 | 63.76924 | -18.53556 | 18001 ft | 181 kts | 265° |
| 2026-04-29 19:40 | 63.77215 | -18.56325 | 18016 ft | 181 kts | 264° |
| 2026-04-29 19:40 | 63.77501 | -18.59086 | 18025 ft | 181 kts | 264° |
| 2026-04-29 19:41 | 63.77788 | -18.61866 | 18044 ft | 182 kts | 264° |
| 2026-04-29 19:41 | 63.78075 | -18.64646 | 18014 ft | 182 kts | 265° |
| 2026-04-29 19:41 | 63.78364 | -18.67429 | 18015 ft | 182 kts | 265° |
| 2026-04-29 19:41 | 63.78651 | -18.70207 | 18010 ft | 182 kts | 265° |
| 2026-04-29 19:42 | 63.78938 | -18.72993 | 18008 ft | 182 kts | 265° |
| 2026-04-29 19:42 | 63.79129 | -18.74839 | 17996 ft | 182 kts | 265° |
| 2026-04-29 19:42 | 63.79514 | -18.78557 | 17994 ft | 181 kts | 265° |
| 2026-04-29 19:42 | 63.79798 | -18.81326 | 18000 ft | 180 kts | 265° |
| 2026-04-29 19:43 | 63.80082 | -18.84092 | 18000 ft | 180 kts | 265° |
| 2026-04-29 19:43 | 63.80366 | -18.86857 | 18002 ft | 180 kts | 264° |
| 2026-04-29 19:43 | 63.80649 | -18.89624 | 18005 ft | 180 kts | 264° |
| 2026-04-29 19:43 | 63.80927 | -18.92352 | 18004 ft | 180 kts | 264° |
| 2026-04-29 19:44 | 63.81208 | -18.95121 | 18003 ft | 180 kts | 264° |
| 2026-04-29 19:44 | 63.81489 | -18.97887 | 17991 ft | 180 kts | 264° |
| 2026-04-29 19:44 | 63.81767 | -19.00641 | 18038 ft | 180 kts | 263° |
| 2026-04-29 19:44 | 63.82043 | -19.03432 | 18027 ft | 183 kts | 264° |
| 2026-04-29 19:45 | 63.82324 | -19.06244 | 18015 ft | 183 kts | 264° |
| 2026-04-29 19:45 | 63.82609 | -19.09066 | 18010 ft | 184 kts | 264° |
| 2026-04-29 19:45 | 63.82895 | -19.11882 | 18004 ft | 183 kts | 264° |
| 2026-04-29 19:45 | 63.83180 | -19.14696 | 18012 ft | 184 kts | 264° |
| 2026-04-29 19:46 | 63.83464 | -19.17519 | 18000 ft | 184 kts | 264° |
| 2026-04-29 19:46 | 63.83747 | -19.20332 | 18004 ft | 183 kts | 264° |
| 2026-04-29 19:46 | 63.84028 | -19.23159 | 18014 ft | 185 kts | 264° |
| 2026-04-29 19:46 | 63.84309 | -19.26007 | 18014 ft | 186 kts | 264° |
| 2026-04-29 19:47 | 63.84591 | -19.28868 | 18000 ft | 186 kts | 264° |
| 2026-04-29 19:47 | 63.84876 | -19.31721 | 17994 ft | 186 kts | 264° |
| 2026-04-29 19:47 | 63.85160 | -19.34570 | 18001 ft | 185 kts | 264° |
| 2026-04-29 19:47 | 63.85443 | -19.37413 | 18006 ft | 185 kts | 264° |
| 2026-04-29 19:48 | 63.85723 | -19.40262 | 18003 ft | 185 kts | 264° |
| 2026-04-29 19:48 | 63.85908 | -19.42147 | 18000 ft | 185 kts | 264° |
| 2026-04-29 19:48 | 63.86279 | -19.45950 | 17949 ft | 186 kts | 264° |
| 2026-04-29 19:48 | 63.86557 | -19.48848 | 17670 ft | 188 kts | 264° |
| 2026-04-29 19:49 | 63.86835 | -19.51710 | 17405 ft | 189 kts | 264° |
| 2026-04-29 19:49 | 63.87119 | -19.54619 | 17147 ft | 189 kts | 265° |
| 2026-04-29 19:49 | 63.87404 | -19.57535 | 16874 ft | 189 kts | 265° |
| 2026-04-29 19:49 | 63.87689 | -19.60459 | 16611 ft | 190 kts | 265° |
| 2026-04-29 19:50 | 63.87973 | -19.63384 | 16351 ft | 190 kts | 265° |
| 2026-04-29 19:50 | 63.88256 | -19.66321 | 16095 ft | 191 kts | 266° |
| 2026-04-29 19:50 | 63.88539 | -19.69257 | 15837 ft | 191 kts | 266° |
| 2026-04-29 19:50 | 63.88821 | -19.72202 | 15576 ft | 191 kts | 266° |
| 2026-04-29 19:51 | 63.89103 | -19.75147 | 15325 ft | 191 kts | 266° |
| 2026-04-29 19:51 | 63.89386 | -19.78104 | 15059 ft | 191 kts | 267° |
| 2026-04-29 19:51 | 63.89668 | -19.81045 | 14806 ft | 191 kts | 267° |
| 2026-04-29 19:51 | 63.89949 | -19.83990 | 14561 ft | 191 kts | 267° |
| 2026-04-29 19:52 | 63.90227 | -19.86930 | 14317 ft | 191 kts | 268° |
| 2026-04-29 19:52 | 63.90505 | -19.89867 | 14111 ft | 190 kts | 268° |
| 2026-04-29 19:52 | 63.90782 | -19.92788 | 13870 ft | 189 kts | 268° |
| 2026-04-29 19:52 | 63.91056 | -19.95695 | 13604 ft | 188 kts | 269° |
| 2026-04-29 19:53 | 63.91330 | -19.98598 | 13322 ft | 187 kts | 268° |
| 2026-04-29 19:53 | 63.91600 | -20.01483 | 13095 ft | 186 kts | 269° |
| 2026-04-29 19:53 | 63.91869 | -20.04350 | 12823 ft | 185 kts | 269° |
| 2026-04-29 19:53 | 63.92135 | -20.07208 | 12555 ft | 184 kts | 269° |
| 2026-04-29 19:54 | 63.92663 | -20.12894 | 12019 ft | 183 kts | 269° |
| 2026-04-29 19:54 | 63.92921 | -20.15687 | 11759 ft | 183 kts | 269° |
| 2026-04-29 19:54 | 63.93185 | -20.18549 | 11493 ft | 183 kts | 269° |
| 2026-04-29 19:55 | 63.93442 | -20.21345 | 11245 ft | 183 kts | 270° |
| 2026-04-29 19:55 | 63.93701 | -20.24169 | 10987 ft | 182 kts | 270° |
| 2026-04-29 19:55 | 63.93961 | -20.26989 | 10728 ft | 182 kts | 270° |
| 2026-04-29 19:55 | 63.94218 | -20.29794 | 10466 ft | 181 kts | 270° |
| 2026-04-29 19:56 | 63.94475 | -20.32597 | 10240 ft | 181 kts | 270° |
| 2026-04-29 19:56 | 63.94694 | -20.35380 | 10015 ft | 176 kts | 266° |
| 2026-04-29 19:56 | 63.94794 | -20.38137 | 9781 ft | 174 kts | 264° |
| 2026-04-29 19:56 | 63.94891 | -20.40890 | 9536 ft | 175 kts | 265° |
| 2026-04-29 19:57 | 63.94990 | -20.43642 | 9279 ft | 175 kts | 265° |
| 2026-04-29 19:57 | 63.95056 | -20.45463 | 9117 ft | 175 kts | 265° |
| 2026-04-29 19:57 | 63.95189 | -20.49132 | 8828 ft | 173 kts | 265° |
| 2026-04-29 19:57 | 63.95286 | -20.51864 | 8621 ft | 173 kts | 265° |
| 2026-04-29 19:58 | 63.95383 | -20.54596 | 8403 ft | 173 kts | 265° |
| 2026-04-29 19:58 | 63.95480 | -20.57328 | 8184 ft | 173 kts | 266° |
| 2026-04-29 19:58 | 63.95575 | -20.60055 | 7971 ft | 173 kts | 266° |
| 2026-04-29 19:58 | 63.95670 | -20.62783 | 7741 ft | 173 kts | 266° |
| 2026-04-29 19:59 | 63.95764 | -20.65526 | 7505 ft | 174 kts | 266° |
| 2026-04-29 19:59 | 63.95859 | -20.68276 | 7278 ft | 174 kts | 266° |
| 2026-04-29 19:59 | 63.95966 | -20.71032 | 7042 ft | 177 kts | 271° |
| 2026-04-29 19:59 | 63.96439 | -20.73661 | 6808 ft | 192 kts | 298° |
| 2026-04-29 20:00 | 63.97364 | -20.75928 | 6527 ft | 196 kts | 304° |
| 2026-04-29 20:00 | 63.98259 | -20.78270 | 6238 ft | 196 kts | 301° |
| 2026-04-29 20:00 | 63.99132 | -20.80658 | 5939 ft | 196 kts | 301° |
| 2026-04-29 20:00 | 64.00009 | -20.83038 | 5653 ft | 196 kts | 302° |
| 2026-04-29 20:01 | 64.00893 | -20.85410 | 5363 ft | 196 kts | 302° |
| 2026-04-29 20:01 | 64.01775 | -20.87762 | 5086 ft | 195 kts | 302° |
| 2026-04-29 20:01 | 64.02656 | -20.90109 | 4785 ft | 194 kts | 302° |
| 2026-04-29 20:01 | 64.03532 | -20.92443 | 4488 ft | 193 kts | 302° |
| 2026-04-29 20:02 | 64.04403 | -20.94771 | 4197 ft | 192 kts | 302° |
| 2026-04-29 20:02 | 64.05272 | -20.97094 | 3910 ft | 192 kts | 302° |
| 2026-04-29 20:02 | 64.06133 | -20.99398 | 3696 ft | 187 kts | 302° |
| 2026-04-29 20:02 | 64.06683 | -21.00857 | 3670 ft | 180 kts | 302° |
| 2026-04-29 20:03 | 64.07750 | -21.03704 | 3587 ft | 174 kts | 301° |
| 2026-04-29 20:03 | 64.08526 | -21.05795 | 3530 ft | 172 kts | 301° |
| 2026-04-29 20:03 | 64.09302 | -21.07894 | 3446 ft | 173 kts | 301° |
| 2026-04-29 20:03 | 64.10079 | -21.10004 | 3351 ft | 174 kts | 300° |
| 2026-04-29 20:04 | 64.10867 | -21.12130 | 3190 ft | 177 kts | 301° |
| 2026-04-29 20:04 | 64.11667 | -21.14287 | 3033 ft | 178 kts | 301° |
| 2026-04-29 20:04 | 64.12473 | -21.16453 | 3039 ft | 179 kts | 301° |
| 2026-04-29 20:04 | 64.13280 | -21.18615 | 3041 ft | 179 kts | 301° |
| 2026-04-29 20:05 | 64.14085 | -21.20792 | 3047 ft | 179 kts | 301° |
| 2026-04-29 20:05 | 64.14894 | -21.22980 | 3050 ft | 180 kts | 301° |
| 2026-04-29 20:05 | 64.15681 | -21.25094 | 3257 ft | 169 kts | 300° |
| 2026-04-29 20:05 | 64.16448 | -21.27209 | 3530 ft | 177 kts | 300° |
| 2026-04-29 20:06 | 64.17253 | -21.29399 | 3800 ft | 182 kts | 301° |
| 2026-04-29 20:06 | 64.18063 | -21.31584 | 4138 ft | 181 kts | 301° |
| 2026-04-29 20:06 | 64.18888 | -21.33808 | 4511 ft | 180 kts | 301° |
| 2026-04-29 20:06 | 64.19697 | -21.36004 | 4877 ft | 180 kts | 300° |
| 2026-04-29 20:07 | 64.20496 | -21.38180 | 5243 ft | 181 kts | 300° |
| 2026-04-29 20:07 | 64.21316 | -21.40422 | 5490 ft | 190 kts | 301° |
| 2026-04-29 20:07 | 64.22187 | -21.42822 | 5512 ft | 200 kts | 301° |
| 2026-04-29 20:07 | 64.23090 | -21.45287 | 5530 ft | 202 kts | 302° |
| 2026-04-29 20:08 | 64.24001 | -21.47761 | 5526 ft | 203 kts | 302° |
| 2026-04-29 20:08 | 64.24603 | -21.49396 | 5509 ft | 201 kts | 302° |
| 2026-04-29 20:08 | 64.25806 | -21.52679 | 5541 ft | 202 kts | 301° |
| 2026-04-29 20:08 | 64.26710 | -21.55140 | 5510 ft | 200 kts | 302° |
| 2026-04-29 20:09 | 64.27600 | -21.57587 | 5501 ft | 199 kts | 301° |
| 2026-04-29 20:09 | 64.28487 | -21.60049 | 5510 ft | 200 kts | 302° |
| 2026-04-29 20:09 | 64.29381 | -21.62487 | 5496 ft | 198 kts | 300° |
| 2026-04-29 20:09 | 64.30263 | -21.64957 | 5518 ft | 201 kts | 301° |
| 2026-04-29 20:10 | 64.31155 | -21.67394 | 5511 ft | 197 kts | 301° |
| 2026-04-29 20:10 | 64.32030 | -21.69785 | 5502 ft | 194 kts | 301° |
| 2026-04-29 20:10 | 64.32879 | -21.72146 | 5505 ft | 189 kts | 299° |
| 2026-04-29 20:10 | 64.33728 | -21.74511 | 5300 ft | 195 kts | 300° |
| 2026-04-29 20:11 | 64.34429 | -21.77112 | 5043 ft | 186 kts | 278° |
| 2026-04-29 20:11 | 64.34425 | -21.79932 | 4819 ft | 174 kts | 253° |
| 2026-04-29 20:11 | 64.34273 | -21.82711 | 4601 ft | 175 kts | 258° |
| 2026-04-29 20:11 | 64.34054 | -21.85364 | 4387 ft | 166 kts | 238° |
| 2026-04-29 20:12 | 64.33213 | -21.87049 | 4185 ft | 164 kts | 206° |
| 2026-04-29 20:12 | 64.32154 | -21.88002 | 3981 ft | 162 kts | 204° |
| 2026-04-29 20:12 | 64.31141 | -21.89125 | 3768 ft | 161 kts | 208° |
| 2026-04-29 20:12 | 64.30173 | -21.90346 | 3633 ft | 152 kts | 210° |
| 2026-04-29 20:13 | 64.29300 | -21.91454 | 3617 ft | 136 kts | 209° |
| 2026-04-29 20:13 | 64.28749 | -21.92152 | 3477 ft | 134 kts | 211° |
| 2026-04-29 20:13 | 64.27620 | -21.93549 | 3195 ft | 144 kts | 210° |
| 2026-04-29 20:13 | 64.26729 | -21.94641 | 3010 ft | 146 kts | 210° |
| 2026-04-29 20:14 | 64.25826 | -21.95735 | 2798 ft | 147 kts | 206° |
| 2026-04-29 20:14 | 64.24801 | -21.96059 | 2590 ft | 154 kts | 180° |
| 2026-04-29 20:14 | 64.23744 | -21.95761 | 2381 ft | 151 kts | 181° |
| 2026-04-29 20:14 | 64.22719 | -21.95578 | 2206 ft | 146 kts | 183° |
| 2026-04-29 20:15 | 64.21745 | -21.95419 | 1967 ft | 130 kts | 183° |
| 2026-04-29 20:15 | 64.20887 | -21.95262 | 1760 ft | 117 kts | 184° |
| 2026-04-29 20:15 | 64.20129 | -21.95120 | 1573 ft | 101 kts | 184° |
| 2026-04-29 20:15 | 64.19480 | -21.94997 | 1415 ft | 84 kts | 186° |
| 2026-04-29 20:16 | 64.18908 | -21.94902 | 1286 ft | 85 kts | 186° |
| 2026-04-29 20:16 | 64.18303 | -21.94806 | 1140 ft | 87 kts | 184° |
| 2026-04-29 20:16 | 64.17714 | -21.94673 | 1009 ft | 84 kts | 184° |
| 2026-04-29 20:16 | 64.17131 | -21.94553 | 860 ft | 85 kts | 183° |
| 2026-04-29 20:17 | 64.16533 | -21.94449 | 718 ft | 88 kts | 182° |
| 2026-04-29 20:17 | 64.15921 | -21.94344 | 563 ft | 88 kts | 183° |
| 2026-04-29 20:17 | 64.15323 | -21.94259 | 445 ft | 86 kts | 179° |
| 2026-04-29 20:17 | 64.14710 | -21.94135 | 317 ft | 90 kts | 181° |
| 2026-04-29 20:18 | 64.14111 | -21.93979 | 186 ft | 80 kts | 174° |
| 2026-04-29 20:18 | 64.13608 | -21.93720 | 89 ft | 69 kts | 184° |
| 2026-04-29 20:18 | 64.13151 | -21.93775 | 42 ft | 56 kts | 183° |
| 2026-04-29 20:18 | 64.12874 | -21.93749 | 47 ft | 17 kts | 172° |
| 2026-04-29 20:19 | 64.12822 | -21.93570 | 46 ft | 9 kts | 98° |
| 2026-04-29 20:19 | 64.12879 | -21.93501 | 46 ft | 7 kts | 356° |
| 2026-04-29 20:19 | 64.12908 | -21.93402 | 46 ft | 10 kts | 95° |
| 2026-04-29 20:19 | 64.12919 | -21.93369 | 45 ft | 0 kts | 2° |
| 2026-04-29 20:21 | 64.12918 | -21.93369 | 45 ft | 0 kts | 2° |
| 2026-04-29 20:24 | 64.12917 | -21.93369 | 45 ft | 0 kts | 2° |